sensor_id;sensor_type;location;lat;lon;timestamp;pressure;altitude;pressure_sealevel;temperature;humidity
80124;BME280;69433;48.642;9.142;2023-06-22T00:00:55;97059.53;;;27.85;45.50
80124;BME280;69433;48.642;9.142;2023-06-22T00:03:21;97062.22;;;27.85;45.20
80124;BME280;69433;48.642;9.142;2023-06-22T00:05:48;97058.34;;;27.86;44.91
80124;BME280;69433;48.642;9.142;2023-06-22T00:08:20;97058.34;;;27.86;45.14
80124;BME280;69433;48.642;9.142;2023-06-22T00:10:46;97056.81;;;27.85;45.33
80124;BME280;69433;48.642;9.142;2023-06-22T00:13:12;97054.88;;;27.86;45.39
80124;BME280;69433;48.642;9.142;2023-06-22T00:15:39;97061.03;;;27.86;45.09
80124;BME280;69433;48.642;9.142;2023-06-22T00:18:12;97066.13;;;27.84;45.24
80124;BME280;69433;48.642;9.142;2023-06-22T00:20:38;97064.16;;;27.85;45.08
80124;BME280;69433;48.642;9.142;2023-06-22T00:23:05;97072.28;;;27.85;45.26
80124;BME280;69433;48.642;9.142;2023-06-22T00:25:37;97072.72;;;27.83;45.15
80124;BME280;69433;48.642;9.142;2023-06-22T00:28:03;97086.53;;;27.85;45.41
80124;BME280;69433;48.642;9.142;2023-06-22T00:30:29;97076.50;;;27.86;45.00
80124;BME280;69433;48.642;9.142;2023-06-22T00:32:55;97064.16;;;27.85;45.35
80124;BME280;69433;48.642;9.142;2023-06-22T00:35:20;97051.09;;;27.83;45.03
80124;BME280;69433;48.642;9.142;2023-06-22T00:37:46;97049.59;;;27.82;45.18
80124;BME280;69433;48.642;9.142;2023-06-22T00:40:18;97054.97;;;27.82;45.26
80124;BME280;69433;48.642;9.142;2023-06-22T00:42:46;97053.47;;;27.81;45.21
80124;BME280;69433;48.642;9.142;2023-06-22T00:45:12;97045.03;;;27.79;45.21
80124;BME280;69433;48.642;9.142;2023-06-22T00:47:37;97051.97;;;27.80;45.26
80124;BME280;69433;48.642;9.142;2023-06-22T00:50:17;97061.25;;;27.79;45.24
80124;BME280;69433;48.642;9.142;2023-06-22T00:52:43;97059.75;;;27.78;44.97
80124;BME280;69433;48.642;9.142;2023-06-22T00:55:11;97078.22;;;27.80;45.11
80124;BME280;69433;48.642;9.142;2023-06-22T00:57:36;97079.41;;;27.79;45.16
80124;BME280;69433;48.642;9.142;2023-06-22T01:00:03;97071.31;;;27.79;45.06
80124;BME280;69433;48.642;9.142;2023-06-22T01:02:41;97067.84;;;27.78;45.04
80124;BME280;69433;48.642;9.142;2023-06-22T01:05:07;97086.75;;;27.78;45.18
80124;BME280;69433;48.642;9.142;2023-06-22T01:07:39;97103.72;;;27.79;45.20
80124;BME280;69433;48.642;9.142;2023-06-22T01:10:27;97095.94;;;27.81;45.29
80124;BME280;69433;48.642;9.142;2023-06-22T01:13:00;97067.41;;;27.80;44.88
80124;BME280;69433;48.642;9.142;2023-06-22T01:18:17;97098.44;;;27.75;45.30
80124;BME280;69433;48.642;9.142;2023-06-22T01:20:43;97097.25;;;27.76;45.01
80124;BME280;69433;48.642;9.142;2023-06-22T01:26:05;97061.81;;;27.74;45.39
80124;BME280;69433;48.642;9.142;2023-06-22T01:28:48;97069.91;;;27.74;45.27
80124;BME280;69433;48.642;9.142;2023-06-22T01:31:19;97083.44;;;27.74;45.22
80124;BME280;69433;48.642;9.142;2023-06-22T01:33:49;97069.16;;;27.74;45.14
80124;BME280;69433;48.642;9.142;2023-06-22T01:36:16;97065.72;;;27.73;44.92
80124;BME280;69433;48.642;9.142;2023-06-22T01:38:42;97065.72;;;27.73;45.08
80124;BME280;69433;48.642;9.142;2023-06-22T01:41:09;97071.53;;;27.72;45.07
80124;BME280;69433;48.642;9.142;2023-06-22T01:43:35;97069.69;;;27.68;45.19
80124;BME280;69433;48.642;9.142;2023-06-22T01:46:02;97066.91;;;27.72;45.08
80124;BME280;69433;48.642;9.142;2023-06-22T01:48:28;97054.56;;;27.71;45.35
80124;BME280;69433;48.642;9.142;2023-06-22T01:51:00;97063.44;;;27.72;46.22
80124;BME280;69433;48.642;9.142;2023-06-22T01:53:26;97073.47;;;27.71;45.96
80124;BME280;69433;48.642;9.142;2023-06-22T01:55:51;97071.13;;;27.60;46.32
80124;BME280;69433;48.642;9.142;2023-06-22T01:58:20;97065.09;;;27.56;46.08
80124;BME280;69433;48.642;9.142;2023-06-22T02:00:58;97076.72;;;27.53;46.46
80124;BME280;69433;48.642;9.142;2023-06-22T02:03:34;97071.00;;;27.51;46.62
80124;BME280;69433;48.642;9.142;2023-06-22T02:06:16;97078.47;;;27.47;46.56
80124;BME280;69433;48.642;9.142;2023-06-22T02:08:49;97077.72;;;27.47;46.55
80124;BME280;69433;48.642;9.142;2023-06-22T02:11:18;97070.47;;;27.44;46.55
80124;BME280;69433;48.642;9.142;2023-06-22T02:13:45;97066.25;;;27.43;46.40
80124;BME280;69433;48.642;9.142;2023-06-22T02:16:11;97075.66;;;27.38;46.55
80124;BME280;69433;48.642;9.142;2023-06-22T02:18:37;97086.34;;;27.42;46.26
80124;BME280;69433;48.642;9.142;2023-06-22T02:21:21;97083.22;;;27.43;46.35
80124;BME280;69433;48.642;9.142;2023-06-22T02:23:47;97077.19;;;27.39;46.28
80124;BME280;69433;48.642;9.142;2023-06-22T02:26:13;97070.56;;;27.40;46.40
80124;BME280;69433;48.642;9.142;2023-06-22T02:28:43;97071.78;;;27.39;46.43
80124;BME280;69433;48.642;9.142;2023-06-22T02:31:08;97067.13;;;27.40;46.36
80124;BME280;69433;48.642;9.142;2023-06-22T02:33:33;97069.50;;;27.38;46.36
80124;BME280;69433;48.642;9.142;2023-06-22T02:35:59;97064.88;;;27.38;46.48
80124;BME280;69433;48.642;9.142;2023-06-22T02:38:24;97066.50;;;27.36;46.36
80124;BME280;69433;48.642;9.142;2023-06-22T02:40:57;97070.28;;;27.38;46.18
80124;BME280;69433;48.642;9.142;2023-06-22T02:43:23;97067.66;;;27.34;46.31
80124;BME280;69433;48.642;9.142;2023-06-22T02:45:48;97053.75;;;27.36;46.11
80124;BME280;69433;48.642;9.142;2023-06-22T02:48:13;97049.97;;;27.33;46.27
80124;BME280;69433;48.642;9.142;2023-06-22T02:50:43;97048.00;;;27.34;46.08
80124;BME280;69433;48.642;9.142;2023-06-22T02:53:08;97053.00;;;27.36;46.19
80124;BME280;69433;48.642;9.142;2023-06-22T02:55:33;97054.19;;;27.34;46.21
80124;BME280;69433;48.642;9.142;2023-06-22T02:57:58;97045.75;;;27.32;46.21
80124;BME280;69433;48.642;9.142;2023-06-22T03:00:25;97040.25;;;27.36;46.19
80124;BME280;69433;48.642;9.142;2023-06-22T03:03:01;97023.28;;;27.36;46.13
80124;BME280;69433;48.642;9.142;2023-06-22T03:05:26;97021.78;;;27.34;46.03
80124;BME280;69433;48.642;9.142;2023-06-22T03:07:52;97025.03;;;27.29;46.23
80124;BME280;69433;48.642;9.142;2023-06-22T03:10:17;97026.84;;;27.32;46.19
80124;BME280;69433;48.642;9.142;2023-06-22T03:12:43;97025.03;;;27.29;46.41
80124;BME280;69433;48.642;9.142;2023-06-22T03:15:11;97021.13;;;27.30;46.14
80124;BME280;69433;48.642;9.142;2023-06-22T03:17:38;97024.47;;;27.34;46.10
80124;BME280;69433;48.642;9.142;2023-06-22T03:20:04;97031.50;;;27.32;46.09
80124;BME280;69433;48.642;9.142;2023-06-22T03:22:35;97028.91;;;27.28;46.22
80124;BME280;69433;48.642;9.142;2023-06-22T03:25:00;97029.34;;;27.27;46.00
80124;BME280;69433;48.642;9.142;2023-06-22T03:27:26;97031.63;;;27.28;46.20
80124;BME280;69433;48.642;9.142;2023-06-22T03:29:51;97028.16;;;27.28;46.13
80124;BME280;69433;48.642;9.142;2023-06-22T03:32:16;97022.75;;;27.28;46.24
80124;BME280;69433;48.642;9.142;2023-06-22T03:34:42;97014.25;;;27.29;46.02
80124;BME280;69433;48.642;9.142;2023-06-22T03:37:13;97015.44;;;27.28;45.90
80124;BME280;69433;48.642;9.142;2023-06-22T03:39:38;97019.63;;;27.29;45.98
80124;BME280;69433;48.642;9.142;2023-06-22T03:42:04;97021.56;;;27.29;46.00
80124;BME280;69433;48.642;9.142;2023-06-22T03:44:30;97025.03;;;27.29;45.96
80124;BME280;69433;48.642;9.142;2023-06-22T03:46:56;97015.44;;;27.28;45.99
80124;BME280;69433;48.642;9.142;2023-06-22T03:49:21;97012.72;;;27.28;46.03
80124;BME280;69433;48.642;9.142;2023-06-22T03:51:46;97012.72;;;27.28;46.14
80124;BME280;69433;48.642;9.142;2023-06-22T03:54:17;97017.38;;;27.28;45.95
80124;BME280;69433;48.642;9.142;2023-06-22T03:56:43;97008.50;;;27.27;45.92
80124;BME280;69433;48.642;9.142;2023-06-22T03:59:08;97009.69;;;27.26;46.14
80124;BME280;69433;48.642;9.142;2023-06-22T04:01:33;97017.38;;;27.28;45.99
80124;BME280;69433;48.642;9.142;2023-06-22T04:03:58;97012.72;;;27.28;45.70
80124;BME280;69433;48.642;9.142;2023-06-22T04:06:24;97012.72;;;27.28;45.97
80124;BME280;69433;48.642;9.142;2023-06-22T04:08:49;97004.91;;;27.30;45.85
80124;BME280;69433;48.642;9.142;2023-06-22T04:11:16;97008.38;;;27.31;45.80
80124;BME280;69433;48.642;9.142;2023-06-22T04:13:43;97000.41;;;27.27;45.81
80124;BME280;69433;48.642;9.142;2023-06-22T04:16:08;96995.00;;;27.27;46.07
80124;BME280;69433;48.642;9.142;2023-06-22T04:18:33;96995.34;;;27.29;45.91
80124;BME280;69433;48.642;9.142;2023-06-22T04:21:05;97000.28;;;27.31;45.69
80124;BME280;69433;48.642;9.142;2023-06-22T04:23:30;97006.13;;;27.29;45.79
80124;BME280;69433;48.642;9.142;2023-06-22T04:25:55;96994.13;;;27.30;45.87
80124;BME280;69433;48.642;9.142;2023-06-22T04:28:21;96997.28;;;27.29;45.92
80124;BME280;69433;48.642;9.142;2023-06-22T04:30:50;96996.63;;;27.38;45.55
80124;BME280;69433;48.642;9.142;2023-06-22T04:33:16;96997.13;;;27.45;45.47
80124;BME280;69433;48.642;9.142;2023-06-22T04:35:42;96996.28;;;27.48;45.34
80124;BME280;69433;48.642;9.142;2023-06-22T04:38:09;96991.09;;;27.41;45.51
80124;BME280;69433;48.642;9.142;2023-06-22T04:40:35;96987.88;;;27.33;45.65
80124;BME280;69433;48.642;9.142;2023-06-22T04:43:00;96979.69;;;27.24;45.34
80124;BME280;69433;48.642;9.142;2023-06-22T04:45:28;96979.03;;;27.20;45.49
80124;BME280;69433;48.642;9.142;2023-06-22T04:48:02;96984.22;;;27.15;45.32
80124;BME280;69433;48.642;9.142;2023-06-22T04:50:27;96980.25;;;27.07;45.15
80124;BME280;69433;48.642;9.142;2023-06-22T04:52:53;96990.94;;;26.98;45.37
80124;BME280;69433;48.642;9.142;2023-06-22T04:55:20;96975.69;;;26.91;45.58
80124;BME280;69433;48.642;9.142;2023-06-22T04:57:45;96981.53;;;26.89;45.42
80124;BME280;69433;48.642;9.142;2023-06-22T05:00:18;96978.59;;;26.84;45.75
80124;BME280;69433;48.642;9.142;2023-06-22T05:02:45;96973.19;;;26.84;45.82
80124;BME280;69433;48.642;9.142;2023-06-22T05:05:11;96967.81;;;26.84;45.72
80124;BME280;69433;48.642;9.142;2023-06-22T05:07:50;96973.53;;;26.86;45.72
80124;BME280;69433;48.642;9.142;2023-06-22T05:10:18;96965.09;;;26.84;45.93
80124;BME280;69433;48.642;9.142;2023-06-22T05:12:44;96963.16;;;26.84;46.01
80124;BME280;69433;48.642;9.142;2023-06-22T05:15:10;96958.84;;;26.87;45.86
80124;BME280;69433;48.642;9.142;2023-06-22T05:17:36;96960.38;;;26.88;45.94
80124;BME280;69433;48.642;9.142;2023-06-22T05:20:02;96959.19;;;26.89;45.92
80124;BME280;69433;48.642;9.142;2023-06-22T05:22:31;96957.16;;;26.93;45.91
80124;BME280;69433;48.642;9.142;2023-06-22T05:24:56;96945.25;;;26.90;45.98
80124;BME280;69433;48.642;9.142;2023-06-22T05:27:21;96949.47;;;26.91;46.19
80124;BME280;69433;48.642;9.142;2023-06-22T05:29:47;96953.59;;;26.96;46.16
80124;BME280;69433;48.642;9.142;2023-06-22T05:32:12;96952.84;;;26.95;46.19
80124;BME280;69433;48.642;9.142;2023-06-22T05:34:38;96953.91;;;26.98;46.24
80124;BME280;69433;48.642;9.142;2023-06-22T05:37:03;96953.16;;;26.98;46.38
80124;BME280;69433;48.642;9.142;2023-06-22T05:39:29;96953.50;;;27.00;46.25
80124;BME280;69433;48.642;9.142;2023-06-22T05:41:54;96948.38;;;27.02;46.54
80124;BME280;69433;48.642;9.142;2023-06-22T05:44:19;96954.53;;;27.02;46.14
80124;BME280;69433;48.642;9.142;2023-06-22T05:46:45;96954.88;;;27.04;46.17
80124;BME280;69433;48.642;9.142;2023-06-22T05:49:12;96958.00;;;27.03;46.66
80124;BME280;69433;48.642;9.142;2023-06-22T05:51:38;96953.69;;;27.05;46.43
80124;BME280;69433;48.642;9.142;2023-06-22T05:54:03;96954.00;;;27.07;46.42
80124;BME280;69433;48.642;9.142;2023-06-22T05:56:28;96950.47;;;27.10;46.21
80124;BME280;69433;48.642;9.142;2023-06-22T05:59:00;96949.25;;;27.11;46.26
80124;BME280;69433;48.642;9.142;2023-06-22T06:01:25;96945.06;;;27.10;46.16
80124;BME280;69433;48.642;9.142;2023-06-22T06:03:51;96944.59;;;27.12;46.14
80124;BME280;69433;48.642;9.142;2023-06-22T06:06:18;96949.03;;;27.18;46.12
80124;BME280;69433;48.642;9.142;2023-06-22T06:08:43;96949.78;;;27.19;45.81
80124;BME280;69433;48.642;9.142;2023-06-22T06:11:08;96952.03;;;27.20;45.93
80124;BME280;69433;48.642;9.142;2023-06-22T06:13:33;96950.09;;;27.21;45.71
80124;BME280;69433;48.642;9.142;2023-06-22T06:15:59;96955.28;;;27.15;45.87
80124;BME280;69433;48.642;9.142;2023-06-22T06:18:24;96951.19;;;27.11;45.79
80124;BME280;69433;48.642;9.142;2023-06-22T06:20:50;96946.88;;;27.13;45.70
80124;BME280;69433;48.642;9.142;2023-06-22T06:23:16;96950.53;;;27.19;45.41
80124;BME280;69433;48.642;9.142;2023-06-22T06:25:42;96957.75;;;27.22;45.33
80124;BME280;69433;48.642;9.142;2023-06-22T06:28:08;96947.28;;;27.24;45.48
80124;BME280;69433;48.642;9.142;2023-06-22T06:30:33;96943.28;;;27.29;45.40
80124;BME280;69433;48.642;9.142;2023-06-22T06:32:59;96949.22;;;27.37;45.36
80124;BME280;69433;48.642;9.142;2023-06-22T06:35:25;96947.94;;;27.28;45.08
80124;BME280;69433;48.642;9.142;2023-06-22T06:37:50;96948.56;;;27.32;45.25
80124;BME280;69433;48.642;9.142;2023-06-22T06:40:18;96947.59;;;27.39;45.15
80124;BME280;69433;48.642;9.142;2023-06-22T06:42:45;96956.75;;;27.42;44.87
80124;BME280;69433;48.642;9.142;2023-06-22T06:45:12;96958.25;;;27.43;45.03
80124;BME280;69433;48.642;9.142;2023-06-22T06:47:38;96960.84;;;27.46;44.98
80124;BME280;69433;48.642;9.142;2023-06-22T06:50:05;96954.13;;;27.51;44.79
80124;BME280;69433;48.642;9.142;2023-06-22T06:52:34;96952.94;;;27.52;45.14
80124;BME280;69433;48.642;9.142;2023-06-22T06:55:00;96943.66;;;27.53;44.86
80124;BME280;69433;48.642;9.142;2023-06-22T06:57:26;96941.63;;;27.57;44.98
80124;BME280;69433;48.642;9.142;2023-06-22T06:59:56;96936.53;;;27.59;44.62
80124;BME280;69433;48.642;9.142;2023-06-22T07:02:22;96947.66;;;27.61;44.93
80124;BME280;69433;48.642;9.142;2023-06-22T07:04:47;96944.19;;;27.60;45.07
80124;BME280;69433;48.642;9.142;2023-06-22T07:07:13;96944.16;;;27.73;44.68
80124;BME280;69433;48.642;9.142;2023-06-22T07:09:38;96948.03;;;27.72;44.82
80124;BME280;69433;48.642;9.142;2023-06-22T07:12:04;96941.88;;;27.72;44.63
80124;BME280;69433;48.642;9.142;2023-06-22T07:14:29;96941.13;;;27.71;44.51
80124;BME280;69433;48.642;9.142;2023-06-22T07:16:56;96942.63;;;27.72;44.37
80124;BME280;69433;48.642;9.142;2023-06-22T07:19:25;96937.56;;;27.74;44.65
80124;BME280;69433;48.642;9.142;2023-06-22T07:21:52;96932.47;;;27.76;44.64
80124;BME280;69433;48.642;9.142;2023-06-22T07:24:20;96927.06;;;27.76;44.37
80124;BME280;69433;48.642;9.142;2023-06-22T07:26:49;96925.94;;;27.86;44.41
80124;BME280;69433;48.642;9.142;2023-06-22T07:29:18;96909.72;;;27.86;44.58
80124;BME280;69433;48.642;9.142;2023-06-22T07:31:46;96904.06;;;27.93;44.16
80124;BME280;69433;48.642;9.142;2023-06-22T07:34:11;96908.91;;;27.98;44.21
80124;BME280;69433;48.642;9.142;2023-06-22T07:36:43;96901.31;;;28.06;43.90
80124;BME280;69433;48.642;9.142;2023-06-22T07:39:09;96899.53;;;28.12;43.91
80124;BME280;69433;48.642;9.142;2023-06-22T07:41:34;96892.81;;;28.17;44.05
80124;BME280;69433;48.642;9.142;2023-06-22T07:43:59;96885.00;;;28.19;43.92
80124;BME280;69433;48.642;9.142;2023-06-22T07:46:25;96880.69;;;28.21;44.25
80124;BME280;69433;48.642;9.142;2023-06-22T07:48:50;96878.63;;;28.25;43.88
80124;BME280;69433;48.642;9.142;2023-06-22T07:51:16;96876.94;;;28.28;44.15
80124;BME280;69433;48.642;9.142;2023-06-22T07:53:42;96882.22;;;28.31;44.34
80124;BME280;69433;48.642;9.142;2023-06-22T07:56:11;96881.47;;;28.31;44.13
80124;BME280;69433;48.642;9.142;2023-06-22T07:58:36;96887.19;;;28.33;44.19
80124;BME280;69433;48.642;9.142;2023-06-22T08:01:02;96887.50;;;28.35;44.31
80124;BME280;69433;48.642;9.142;2023-06-22T08:03:28;96882.41;;;28.37;43.96
80124;BME280;69433;48.642;9.142;2023-06-22T08:05:53;96904.34;;;28.39;44.19
80124;BME280;69433;48.642;9.142;2023-06-22T08:08:19;96900.31;;;28.43;43.89
80124;BME280;69433;48.642;9.142;2023-06-22T08:10:44;96911.13;;;28.43;44.19
80124;BME280;69433;48.642;9.142;2023-06-22T08:13:10;96914.59;;;28.44;43.80
80124;BME280;69433;48.642;9.142;2023-06-22T08:15:35;96935.03;;;28.45;43.89
80124;BME280;69433;48.642;9.142;2023-06-22T08:18:00;96928.41;;;28.46;44.18
80124;BME280;69433;48.642;9.142;2023-06-22T08:20:26;96930.66;;;28.48;44.14
80124;BME280;69433;48.642;9.142;2023-06-22T08:22:53;96938.97;;;28.53;43.78
80124;BME280;69433;48.642;9.142;2023-06-22T08:25:19;96942.44;;;28.54;43.67
80124;BME280;69433;48.642;9.142;2023-06-22T08:27:46;96946.94;;;28.57;43.66
80124;BME280;69433;48.642;9.142;2023-06-22T08:30:12;96954.28;;;28.56;44.53
80124;BME280;69433;48.642;9.142;2023-06-22T08:32:38;96949.53;;;28.60;44.20
80124;BME280;69433;48.642;9.142;2023-06-22T08:35:03;96952.22;;;28.60;44.12
80124;BME280;69433;48.642;9.142;2023-06-22T08:37:31;96945.63;;;28.61;43.92
80124;BME280;69433;48.642;9.142;2023-06-22T08:40:02;96943.22;;;28.63;43.93
80124;BME280;69433;48.642;9.142;2023-06-22T08:42:31;96955.84;;;28.66;44.08
80124;BME280;69433;48.642;9.142;2023-06-22T08:44:57;96935.41;;;28.65;44.51
80124;BME280;69433;48.642;9.142;2023-06-22T08:47:22;96939.78;;;28.63;44.42
80124;BME280;69433;48.642;9.142;2023-06-22T08:49:48;96945.94;;;28.63;44.66
80124;BME280;69433;48.642;9.142;2023-06-22T08:52:13;96939.13;;;28.59;44.17
80124;BME280;69433;48.642;9.142;2023-06-22T08:54:47;96941.09;;;28.58;44.45
80124;BME280;69433;48.642;9.142;2023-06-22T08:57:12;96940.34;;;28.58;44.66
80124;BME280;69433;48.642;9.142;2023-06-22T08:59:38;96939.56;;;28.57;44.26
80124;BME280;69433;48.642;9.142;2023-06-22T09:02:03;96931.03;;;28.59;44.20
80124;BME280;69433;48.642;9.142;2023-06-22T09:04:28;96927.25;;;28.56;44.61
80124;BME280;69433;48.642;9.142;2023-06-22T09:06:53;96926.06;;;28.57;44.68
80124;BME280;69433;48.642;9.142;2023-06-22T09:09:21;96931.31;;;28.52;44.98
80124;BME280;69433;48.642;9.142;2023-06-22T09:11:46;96933.56;;;28.53;44.85
80124;BME280;69433;48.642;9.142;2023-06-22T09:14:12;96952.34;;;28.57;44.89
80124;BME280;69433;48.642;9.142;2023-06-22T09:16:37;96942.59;;;28.59;45.91
80124;BME280;69433;48.642;9.142;2023-06-22T09:19:02;96928.94;;;28.63;46.00
80124;BME280;69433;48.642;9.142;2023-06-22T09:21:28;96925.78;;;28.64;46.98
80124;BME280;69433;48.642;9.142;2023-06-22T09:23:54;96921.59;;;28.63;46.68
80124;BME280;69433;48.642;9.142;2023-06-22T09:26:20;96922.34;;;28.64;45.69
80124;BME280;69433;48.642;9.142;2023-06-22T09:28:46;96913.16;;;28.61;46.34
80124;BME280;69433;48.642;9.142;2023-06-22T09:31:12;96904.72;;;28.59;45.98
80124;BME280;69433;48.642;9.142;2023-06-22T09:33:37;96904.09;;;28.55;45.95
80124;BME280;69433;48.642;9.142;2023-06-22T09:36:06;96901.13;;;28.53;45.69
80124;BME280;69433;48.642;9.142;2023-06-22T09:38:35;96893.75;;;28.54;45.83
80124;BME280;69433;48.642;9.142;2023-06-22T09:41:00;96885.75;;;28.50;46.44
80124;BME280;69433;48.642;9.142;2023-06-22T09:43:28;96875.81;;;28.47;45.56
80124;BME280;69433;48.642;9.142;2023-06-22T09:45:53;96888.16;;;28.48;46.78
80124;BME280;69433;48.642;9.142;2023-06-22T09:48:19;96893.88;;;28.50;46.72
80124;BME280;69433;48.642;9.142;2023-06-22T09:50:44;96897.03;;;28.49;46.63
80124;BME280;69433;48.642;9.142;2023-06-22T09:53:26;96887.28;;;28.51;45.98
80124;BME280;69433;48.642;9.142;2023-06-22T09:55:51;96891.50;;;28.52;46.45
80124;BME280;69433;48.642;9.142;2023-06-22T09:58:16;96873.63;;;28.55;46.63
80124;BME280;69433;48.642;9.142;2023-06-22T10:00:42;96869.41;;;28.54;47.82
80124;BME280;69433;48.642;9.142;2023-06-22T10:03:07;96857.84;;;28.53;47.75
80124;BME280;69433;48.642;9.142;2023-06-22T10:05:32;96857.53;;;28.51;48.10
80124;BME280;69433;48.642;9.142;2023-06-22T10:08:00;96847.91;;;28.50;47.59
80124;BME280;69433;48.642;9.142;2023-06-22T10:10:25;96844.13;;;28.48;47.98
80124;BME280;69433;48.642;9.142;2023-06-22T10:13:02;96849.53;;;28.48;47.86
80124;BME280;69433;48.642;9.142;2023-06-22T10:15:27;96847.28;;;28.46;48.29
80124;BME280;69433;48.642;9.142;2023-06-22T10:17:53;96843.38;;;28.47;47.71
80124;BME280;69433;48.642;9.142;2023-06-22T10:20:18;96842.50;;;28.50;47.89
80124;BME280;69433;48.642;9.142;2023-06-22T10:22:44;96839.03;;;28.50;48.40
80124;BME280;69433;48.642;9.142;2023-06-22T10:25:11;96834.06;;;28.48;49.39
80124;BME280;69433;48.642;9.142;2023-06-22T10:27:37;96828.22;;;28.50;48.85
80124;BME280;69433;48.642;9.142;2023-06-22T10:30:06;96823.25;;;28.48;48.91
80124;BME280;69433;48.642;9.142;2023-06-22T10:32:32;96832.88;;;28.49;48.82
80124;BME280;69433;48.642;9.142;2023-06-22T10:34:58;96835.13;;;28.51;48.58
80124;BME280;69433;48.642;9.142;2023-06-22T10:37:23;96825.06;;;28.51;49.17
80124;BME280;69433;48.642;9.142;2023-06-22T10:39:48;96826.56;;;28.52;49.12
80124;BME280;69433;48.642;9.142;2023-06-22T10:42:14;96823.13;;;28.52;49.46
80124;BME280;69433;48.642;9.142;2023-06-22T10:44:43;96824.63;;;28.53;48.44
80124;BME280;69433;48.642;9.142;2023-06-22T10:47:10;96825.38;;;28.53;49.08
80124;BME280;69433;48.642;9.142;2023-06-22T10:49:38;96821.16;;;28.52;48.50
80124;BME280;69433;48.642;9.142;2023-06-22T10:52:15;96816.97;;;28.51;49.25
80124;BME280;69433;48.642;9.142;2023-06-22T10:54:41;96819.66;;;28.51;48.83
80124;BME280;69433;48.642;9.142;2023-06-22T10:57:06;96815.00;;;28.52;49.26
80124;BME280;69433;48.642;9.142;2023-06-22T10:59:33;96807.19;;;28.54;49.01
80124;BME280;69433;48.642;9.142;2023-06-22T11:01:58;96810.66;;;28.54;49.67
80124;BME280;69433;48.642;9.142;2023-06-22T11:04:24;96813.66;;;28.56;49.55
80124;BME280;69433;48.642;9.142;2023-06-22T11:06:51;96819.06;;;28.56;49.12
80124;BME280;69433;48.642;9.142;2023-06-22T11:09:17;96815.91;;;28.58;49.25
80124;BME280;69433;48.642;9.142;2023-06-22T11:11:46;96815.91;;;28.58;49.74
80124;BME280;69433;48.642;9.142;2023-06-22T11:14:11;96818.31;;;28.56;50.14
80124;BME280;69433;48.642;9.142;2023-06-22T11:16:37;96824.47;;;28.56;49.57
80124;BME280;69433;48.642;9.142;2023-06-22T11:19:02;96835.16;;;28.60;49.33
80124;BME280;69433;48.642;9.142;2023-06-22T11:21:28;96828.69;;;28.57;50.09
80124;BME280;69433;48.642;9.142;2023-06-22T11:23:53;96825.97;;;28.57;49.67
80124;BME280;69433;48.642;9.142;2023-06-22T11:26:19;96824.34;;;28.60;49.29
80124;BME280;69433;48.642;9.142;2023-06-22T11:28:46;96820.56;;;28.57;49.07
80124;BME280;69433;48.642;9.142;2023-06-22T11:31:11;96817.28;;;28.62;49.07
80124;BME280;69433;48.642;9.142;2023-06-22T11:33:36;96806.75;;;28.64;49.64
80124;BME280;69433;48.642;9.142;2023-06-22T11:36:02;96797.16;;;28.63;49.32
80124;BME280;69433;48.642;9.142;2023-06-22T11:38:27;96795.66;;;28.62;49.42
80124;BME280;69433;48.642;9.142;2023-06-22T11:40:52;96796.53;;;28.59;48.48
80124;BME280;69433;48.642;9.142;2023-06-22T11:43:18;96804.34;;;28.57;49.02
80124;BME280;69433;48.642;9.142;2023-06-22T11:45:44;96812.00;;;28.59;49.51
80124;BME280;69433;48.642;9.142;2023-06-22T11:48:09;96812.75;;;28.59;49.79
80124;BME280;69433;48.642;9.142;2023-06-22T11:50:35;96812.75;;;28.59;48.45
80124;BME280;69433;48.642;9.142;2023-06-22T11:53:02;96832.00;;;28.61;49.43
80124;BME280;69433;48.642;9.142;2023-06-22T11:55:28;96830.81;;;28.62;49.27
80124;BME280;69433;48.642;9.142;2023-06-22T11:57:57;96825.09;;;28.60;48.97
80124;BME280;69433;48.642;9.142;2023-06-22T12:00:28;96808.88;;;28.60;49.40
80124;BME280;69433;48.642;9.142;2023-06-22T12:02:57;96806.59;;;28.59;49.86
80124;BME280;69433;48.642;9.142;2023-06-22T12:05:22;96810.50;;;28.58;49.99
80124;BME280;69433;48.642;9.142;2023-06-22T12:07:49;96800.44;;;28.58;49.68
80124;BME280;69433;48.642;9.142;2023-06-22T12:10:15;96807.34;;;28.59;49.42
80124;BME280;69433;48.642;9.142;2023-06-22T12:12:41;96804.34;;;28.57;49.59
80124;BME280;69433;48.642;9.142;2023-06-22T12:15:06;96809.00;;;28.57;50.11
80124;BME280;69433;48.642;9.142;2023-06-22T12:17:34;96818.31;;;28.56;48.23
80124;BME280;69433;48.642;9.142;2023-06-22T12:19:59;96817.56;;;28.55;48.09
80124;BME280;69433;48.642;9.142;2023-06-22T12:22:24;96809.75;;;28.57;49.55
80124;BME280;69433;48.642;9.142;2023-06-22T12:24:50;96803.44;;;28.60;47.81
80124;BME280;69433;48.642;9.142;2023-06-22T12:27:17;96811.72;;;28.66;48.70
80124;BME280;69433;48.642;9.142;2023-06-22T12:29:44;96823.59;;;28.68;48.43
80124;BME280;69433;48.642;9.142;2023-06-22T12:32:16;96829.31;;;28.70;48.82
80124;BME280;69433;48.642;9.142;2023-06-22T12:34:42;96850.53;;;28.72;48.18
80124;BME280;69433;48.642;9.142;2023-06-22T12:37:07;96857.88;;;28.71;48.07
80124;BME280;69433;48.642;9.142;2023-06-22T12:39:33;96860.28;;;28.69;49.36
80124;BME280;69433;48.642;9.142;2023-06-22T12:41:58;96863.56;;;28.64;49.78
80124;BME280;69433;48.642;9.142;2023-06-22T12:44:23;96868.69;;;28.62;49.74
80124;BME280;69433;48.642;9.142;2023-06-22T12:46:50;96866.88;;;28.59;48.11
80124;BME280;69433;48.642;9.142;2023-06-22T12:49:15;96857.09;;;28.53;47.48
80124;BME280;69433;48.642;9.142;2023-06-22T12:51:41;96860.53;;;28.53;48.08
80124;BME280;69433;48.642;9.142;2023-06-22T12:54:13;96862.06;;;28.54;48.94
80124;BME280;69433;48.642;9.142;2023-06-22T12:56:39;96857.22;;;28.49;48.10
80124;BME280;69433;48.642;9.142;2023-06-22T12:59:04;96843.69;;;28.49;48.12
80124;BME280;69433;48.642;9.142;2023-06-22T13:01:32;96835.88;;;28.51;48.98
80124;BME280;69433;48.642;9.142;2023-06-22T13:03:58;96827.16;;;28.47;47.65